createdAt,value
2019-02-26T00:00:03.014Z,0.5
2019-02-26T00:01:03.676Z,0.6
2019-02-26T00:02:02.877Z,0.7
2019-02-26T00:03:04.922Z,0.8
2019-02-26T00:04:03.766Z,0.8
2019-02-26T00:05:03.754Z,0.8
2019-02-26T00:06:03.916Z,0.8
2019-02-26T00:07:03.339Z,0.7
2019-02-26T00:08:02.905Z,0.5
2019-02-26T00:09:03.923Z,0.6
2019-02-26T00:10:07.200Z,0.3
2019-02-26T00:11:08.357Z,0.2
2019-02-26T00:12:02.938Z,0.1
2019-02-26T00:13:02.809Z,0.3
2019-02-26T00:14:03.146Z,0.4
2019-02-26T00:15:02.957Z,0.4
2019-02-26T00:16:10.394Z,0.4
2019-02-26T00:17:12.606Z,0.7
2019-02-26T00:18:03.205Z,0.8
2019-02-26T00:19:09.687Z,0.9
2019-02-26T00:20:08.461Z,1
2019-02-26T00:21:05.130Z,1.1
2019-02-26T00:22:02.863Z,1
2019-02-26T00:23:04.544Z,1.1
2019-02-26T00:24:07.772Z,1.1
2019-02-26T00:25:09.990Z,1.1
2019-02-26T00:26:03.037Z,1.1
2019-02-26T00:27:09.366Z,1.1
2019-02-26T00:28:02.964Z,1.1
2019-02-26T00:29:08.472Z,1.2
2019-02-26T00:30:03.087Z,1.2
2019-02-26T00:31:06.116Z,1.3
2019-02-26T00:32:02.927Z,1.3
2019-02-26T00:33:05.443Z,1.3
2019-02-26T00:34:02.876Z,1.3
2019-02-26T00:35:04.436Z,1.3
2019-02-26T00:36:08.965Z,1.3
2019-02-26T00:37:08.373Z,1.3
2019-02-26T00:38:03.625Z,1.4
2019-02-26T00:39:07.337Z,1.4
2019-02-26T00:40:02.521Z,1.4
2019-02-26T00:41:06.169Z,1.4
2019-02-26T00:42:05.468Z,1.4
2019-02-26T00:43:06.669Z,1.4
2019-02-26T00:44:06.646Z,1.4
2019-02-26T00:45:08.006Z,1.4
2019-02-26T00:46:08.620Z,1.4
2019-02-26T00:47:08.953Z,1.4
2019-02-26T00:48:03.673Z,1.3
2019-02-26T00:49:07.557Z,1.4
2019-02-26T00:50:09.485Z,1.3
2019-02-26T00:51:03.269Z,1.3
2019-02-26T00:52:08.599Z,1.3
2019-02-26T00:53:04.128Z,1.3
2019-02-26T00:54:04.289Z,1.3
2019-02-26T00:55:09.299Z,1.3
2019-02-26T00:56:10.254Z,1.3
2019-02-26T00:57:08.747Z,1.3
2019-02-26T00:58:10.272Z,1.3
2019-02-26T00:59:02.822Z,1.3
2019-02-26T01:00:09.796Z,1.3
2019-02-26T01:01:02.909Z,1.3
2019-02-26T01:02:03.559Z,1.3
2019-02-26T01:03:08.411Z,1.3
2019-02-26T01:04:02.832Z,1.3
2019-02-26T01:05:08.693Z,1.3
2019-02-26T01:06:08.015Z,1.3
2019-02-26T01:07:07.578Z,1.3
2019-02-26T01:08:03.743Z,1.3
2019-02-26T01:09:11.113Z,1.2
2019-02-26T01:10:02.947Z,1.2
2019-02-26T01:11:08.354Z,1.2
2019-02-26T01:12:02.827Z,1.2
2019-02-26T01:13:07.407Z,1.2
2019-02-26T01:14:03.660Z,1.3
2019-02-26T01:15:07.615Z,1.3
2019-02-26T01:16:03.635Z,1.3
2019-02-26T01:17:03.815Z,1.3
2019-02-26T01:18:05.783Z,1.3
2019-02-26T01:19:03.412Z,1.3
2019-02-26T01:20:05.849Z,1.3
2019-02-26T01:21:04.448Z,1.4
2019-02-26T01:22:03.189Z,1.3
2019-02-26T01:23:02.763Z,1.2
2019-02-26T01:24:08.560Z,1.3
2019-02-26T01:25:02.857Z,1.3
2019-02-26T01:26:03.577Z,1.3
2019-02-26T01:27:03.062Z,1.3
2019-02-26T01:28:03.613Z,1.3
2019-02-26T01:29:03.341Z,1.3
2019-02-26T01:30:03.616Z,1.3
2019-02-26T01:31:07.441Z,1.2
2019-02-26T01:32:03.486Z,1.3
2019-02-26T01:33:09.760Z,1.1
2019-02-26T01:34:03.494Z,1
2019-02-26T01:35:08.242Z,0.9
2019-02-26T01:36:03.129Z,0.4
2019-02-26T01:37:08.041Z,0.4
2019-02-26T01:38:03.665Z,-0.3
2019-02-26T01:39:02.826Z,-0.3
2019-02-26T01:40:09.545Z,-0.3
2019-02-26T01:41:02.802Z,-0.2
2019-02-26T01:42:03.639Z,-0.2
2019-02-26T01:43:05.733Z,-0.3
2019-02-26T01:44:03.456Z,-0.5
2019-02-26T01:45:03.390Z,-0.6
2019-02-26T01:46:03.417Z,-0.6
2019-02-26T01:47:04.833Z,-0.4
2019-02-26T01:48:08.808Z,-0.4
2019-02-26T01:49:04.465Z,-0.4
2019-02-26T01:50:08.821Z,-0.4
2019-02-26T01:51:03.529Z,-0.3
2019-02-26T01:52:03.212Z,-0.3
2019-02-26T01:53:03.540Z,-0.3
2019-02-26T01:54:09.487Z,-0.3
2019-02-26T01:55:02.954Z,-0.4
2019-02-26T01:56:05.327Z,-0.3
2019-02-26T01:57:03.162Z,-0.2
2019-02-26T01:58:03.538Z,-0.2
2019-02-26T01:59:03.210Z,-0.3
2019-02-26T02:00:07.055Z,-0.3
2019-02-26T02:01:03.175Z,-0.3
2019-02-26T02:02:03.642Z,-0.3
2019-02-26T02:03:03.501Z,-0.3
2019-02-26T02:04:03.707Z,-0.3
2019-02-26T02:05:07.183Z,-0.4
2019-02-26T02:06:03.579Z,-0.4
2019-02-26T02:07:06.123Z,-0.4
2019-02-26T02:08:03.752Z,-0.4
2019-02-26T02:09:03.183Z,-0.5
2019-02-26T02:10:03.729Z,-0.4
2019-02-26T02:11:09.358Z,-0.4
2019-02-26T02:12:08.786Z,-0.3
2019-02-26T02:13:07.587Z,-0.3
2019-02-26T02:14:09.973Z,-0.3
2019-02-26T02:15:03.616Z,-0.3
2019-02-26T02:16:08.815Z,-0.3
2019-02-26T02:17:08.423Z,-0.4
2019-02-26T02:18:06.265Z,-0.3
2019-02-26T02:19:03.385Z,-0.3
2019-02-26T02:20:12.681Z,-0.3
2019-02-26T02:21:02.552Z,-0.3
2019-02-26T02:22:03.443Z,-0.3
2019-02-26T02:23:07.134Z,-0.3
2019-02-26T02:24:13.205Z,-0.3
2019-02-26T02:25:03.224Z,-0.3
2019-02-26T02:26:09.241Z,-0.4
2019-02-26T02:27:03.330Z,-0.4
2019-02-26T02:28:04.653Z,-0.4
2019-02-26T02:29:03.035Z,-0.5
2019-02-26T02:30:03.712Z,-0.5
2019-02-26T02:31:03.239Z,-0.5
2019-02-26T02:32:07.825Z,-0.6
2019-02-26T02:33:03.071Z,-0.7
2019-02-26T02:34:03.660Z,-0.7
2019-02-26T02:35:09.947Z,-0.8
2019-02-26T02:36:03.279Z,-0.9
2019-02-26T02:37:03.012Z,-0.9
2019-02-26T02:38:05.095Z,-0.9
2019-02-26T02:39:03.238Z,-1
2019-02-26T02:40:03.641Z,-0.9
2019-02-26T02:41:03.018Z,-0.9
2019-02-26T02:42:03.587Z,-0.9
2019-02-26T02:43:10.480Z,-0.8
2019-02-26T02:44:03.181Z,-0.8
2019-02-26T02:45:11.210Z,-0.8
2019-02-26T02:46:03.349Z,-0.8
2019-02-26T02:47:09.181Z,-0.8
2019-02-26T02:48:08.895Z,-0.8
2019-02-26T02:49:09.708Z,-0.8
2019-02-26T02:50:12.138Z,-0.8
2019-02-26T02:51:13.184Z,-0.8
2019-02-26T02:52:09.088Z,-0.8
2019-02-26T02:53:04.153Z,-0.8
2019-02-26T02:54:02.956Z,-0.8
2019-02-26T02:55:09.728Z,-0.9
2019-02-26T02:56:09.660Z,-1.1
2019-02-26T02:57:10.050Z,-1
2019-02-26T02:58:03.729Z,-0.9
2019-02-26T02:59:08.824Z,-0.8
2019-02-26T03:00:08.695Z,-0.7
2019-02-26T03:01:02.963Z,-0.7
2019-02-26T03:02:03.240Z,-0.7
2019-02-26T03:03:02.553Z,-0.6
2019-02-26T03:04:03.764Z,-0.4
2019-02-26T03:05:02.928Z,-0.3
2019-02-26T03:06:09.619Z,-0.2
2019-02-26T03:07:03.370Z,-0.1
2019-02-26T03:08:03.622Z,-0.1
2019-02-26T03:09:02.902Z,-0.1
2019-02-26T03:10:09.493Z,-0.1
2019-02-26T03:11:03.307Z,0
2019-02-26T03:12:03.093Z,0
2019-02-26T03:13:03.379Z,0
2019-02-26T03:14:02.787Z,0.1
2019-02-26T03:15:10.162Z,0.1
2019-02-26T03:16:02.733Z,0.1
2019-02-26T03:17:10.511Z,0.1
2019-02-26T03:18:09.735Z,0.1
2019-02-26T03:19:09.615Z,0.1
2019-02-26T03:20:09.544Z,0.1
2019-02-26T03:21:05.022Z,0.1
2019-02-26T03:22:02.655Z,0.1
2019-02-26T03:23:09.677Z,0.1
2019-02-26T03:24:08.672Z,0.1
2019-02-26T03:25:03.303Z,0.1
2019-02-26T03:26:02.965Z,0.1
2019-02-26T03:27:03.522Z,0.1
2019-02-26T03:28:03.048Z,0.1
2019-02-26T03:29:04.032Z,0.1
2019-02-26T03:30:02.833Z,0.1
2019-02-26T03:31:02.593Z,0.1
2019-02-26T03:32:03.223Z,0.1
2019-02-26T03:33:05.082Z,0.1
2019-02-26T03:34:19.879Z,0
2019-02-26T03:35:12.840Z,0
2019-02-26T03:36:11.006Z,0
2019-02-26T03:37:10.455Z,0
2019-02-26T03:38:03.876Z,0
2019-02-26T03:39:03.492Z,0
2019-02-26T03:40:08.643Z,0.1
2019-02-26T03:41:03.828Z,0.1
2019-02-26T03:42:03.582Z,0
2019-02-26T03:43:09.727Z,-0.1
2019-02-26T03:44:08.801Z,-0.3
2019-02-26T03:45:03.968Z,-0.6
2019-02-26T03:46:02.734Z,-0.9
2019-02-26T03:47:03.137Z,-1
2019-02-26T03:48:03.380Z,-0.9
2019-02-26T03:49:03.772Z,-0.8
2019-02-26T03:50:03.712Z,-0.8
2019-02-26T03:51:02.870Z,-0.8
2019-02-26T03:52:03.335Z,-0.8
2019-02-26T03:53:03.578Z,-0.8
2019-02-26T03:54:03.655Z,-0.9
2019-02-26T03:55:11.545Z,-0.9
2019-02-26T03:56:11.813Z,-0.9
2019-02-26T03:57:02.915Z,-0.8
2019-02-26T03:58:03.708Z,-0.9
2019-02-26T03:59:11.816Z,-1.1
2019-02-26T04:00:11.293Z,-1.3
2019-02-26T04:01:10.981Z,-1.4
2019-02-26T04:02:03.601Z,-1.4
2019-02-26T04:03:09.880Z,-1.3
2019-02-26T04:04:07.838Z,-1.4
2019-02-26T04:05:08.939Z,-1.3
2019-02-26T04:06:12.100Z,-1.3
2019-02-26T04:07:10.563Z,-1.3
2019-02-26T04:08:04.667Z,-1.2
2019-02-26T04:09:03.036Z,-1.1
2019-02-26T04:10:03.316Z,-1.1
2019-02-26T04:11:02.518Z,-1.1
2019-02-26T04:12:03.723Z,-1.1
2019-02-26T04:13:02.955Z,-1
2019-02-26T04:14:03.561Z,-1.1
2019-02-26T04:15:03.187Z,-1.1
2019-02-26T04:16:04.854Z,-1.1
2019-02-26T04:17:08.922Z,-1.2
2019-02-26T04:18:03.311Z,-1.2
2019-02-26T04:19:03.008Z,-1.2
2019-02-26T04:20:06.432Z,-1.3
2019-02-26T04:21:11.834Z,-1.3
2019-02-26T04:22:03.276Z,-1.1
2019-02-26T04:23:03.169Z,-1.1
2019-02-26T04:24:10.974Z,-0.9
2019-02-26T04:25:09.490Z,-0.8
2019-02-26T04:26:03.038Z,-0.8
2019-02-26T04:27:02.808Z,-0.8
2019-02-26T04:28:08.556Z,-0.7
2019-02-26T04:29:03.173Z,-0.6
2019-02-26T04:30:10.574Z,-0.6
2019-02-26T04:31:03.431Z,-0.4
2019-02-26T04:32:03.605Z,-0.4
2019-02-26T04:33:09.517Z,-0.4
2019-02-26T04:34:08.712Z,-0.6
2019-02-26T04:35:03.071Z,-0.9
2019-02-26T04:36:03.282Z,-1.2
2019-02-26T04:37:10.795Z,-1.3
2019-02-26T04:38:06.473Z,-1.3
2019-02-26T04:39:03.091Z,-1.3
2019-02-26T04:40:12.063Z,-1.2
2019-02-26T04:41:12.549Z,-1.3
2019-02-26T04:42:09.200Z,-1.3
2019-02-26T04:43:10.116Z,-1.1
2019-02-26T04:44:06.400Z,-1.1
2019-02-26T04:45:09.383Z,-1
2019-02-26T04:46:11.320Z,-1.1
2019-02-26T04:47:06.120Z,-1.2
2019-02-26T04:48:03.559Z,-1.3
2019-02-26T04:49:03.767Z,-1.5
2019-02-26T04:50:09.265Z,-1.6
2019-02-26T04:51:03.106Z,-1.6
2019-02-26T04:52:11.801Z,-1.5
2019-02-26T04:53:11.188Z,-1.5
2019-02-26T04:54:03.652Z,-1.5
2019-02-26T04:55:03.559Z,-1.5
2019-02-26T04:56:14.444Z,-1.5
2019-02-26T04:57:03.854Z,-1.4
2019-02-26T04:58:03.127Z,-1.3
2019-02-26T04:59:09.930Z,-1.4
2019-02-26T05:00:10.661Z,-1.1
2019-02-26T05:01:10.660Z,-0.8
2019-02-26T05:02:03.451Z,-0.8
2019-02-26T05:03:11.129Z,-0.7
2019-02-26T05:04:03.177Z,-0.7
2019-02-26T05:05:02.914Z,-0.6
2019-02-26T05:06:10.049Z,-0.5
2019-02-26T05:07:11.105Z,-0.5
2019-02-26T05:08:11.902Z,-0.4
2019-02-26T05:09:08.448Z,-0.4
2019-02-26T05:10:03.375Z,-0.3
2019-02-26T05:11:02.806Z,-0.3
2019-02-26T05:12:03.594Z,-0.3
2019-02-26T05:13:09.737Z,-0.3
2019-02-26T05:14:03.325Z,-0.3
2019-02-26T05:15:03.788Z,-0.3
2019-02-26T05:16:03.532Z,-0.2
2019-02-26T05:17:03.398Z,-0.2
2019-02-26T05:18:03.027Z,-0.2
2019-02-26T05:19:03.234Z,-0.1
2019-02-26T05:20:12.670Z,-0.1
2019-02-26T05:21:12.328Z,-0.1
2019-02-26T05:22:07.179Z,-0.1
2019-02-26T05:23:06.477Z,-0.1
2019-02-26T05:24:03.207Z,-0.1
2019-02-26T05:25:11.608Z,-0.1
2019-02-26T05:26:12.417Z,-0.1
2019-02-26T05:27:03.077Z,-0.1
2019-02-26T05:28:08.855Z,0
2019-02-26T05:29:03.484Z,-0.1
2019-02-26T05:30:03.184Z,0
2019-02-26T05:31:09.567Z,-0.1
2019-02-26T05:32:09.297Z,-0.1
2019-02-26T05:33:05.695Z,-0.1
2019-02-26T05:34:03.063Z,-0.1
2019-02-26T05:35:03.336Z,-0.1
2019-02-26T05:36:08.667Z,-0.1
2019-02-26T05:37:10.915Z,0
2019-02-26T05:38:09.659Z,-0.1
2019-02-26T05:39:03.026Z,0
2019-02-26T05:40:03.670Z,0
2019-02-26T05:41:03.160Z,0
2019-02-26T05:42:06.446Z,-0.1
2019-02-26T05:43:06.867Z,-0.1
2019-02-26T05:44:10.879Z,-0.1
2019-02-26T05:45:09.558Z,-0.1
2019-02-26T05:46:04.230Z,-0.1
2019-02-26T05:47:03.742Z,-0.1
2019-02-26T05:48:03.261Z,-0.1
2019-02-26T05:49:13.366Z,-0.1
2019-02-26T05:50:13.375Z,-0.1
2019-02-26T05:51:11.503Z,-0.1
2019-02-26T05:52:07.277Z,-0.1
2019-02-26T05:53:11.148Z,-0.1
2019-02-26T05:54:14.638Z,-0.1
2019-02-26T05:55:03.662Z,-0.1
2019-02-26T05:56:03.286Z,-0.1
2019-02-26T05:57:11.333Z,-0.1
2019-02-26T05:58:03.564Z,-0.1
2019-02-26T05:59:11.794Z,-0.1
2019-02-26T06:00:03.737Z,-0.1
2019-02-26T06:01:03.338Z,-0.1
2019-02-26T06:02:02.847Z,-0.1
2019-02-26T06:03:10.223Z,0
2019-02-26T06:04:09.519Z,-0.1
2019-02-26T06:05:02.811Z,0
2019-02-26T06:06:03.262Z,0
2019-02-26T06:07:04.889Z,0
2019-02-26T06:08:03.194Z,0.1
2019-02-26T06:09:08.002Z,0.1
2019-02-26T06:10:03.156Z,0.1
2019-02-26T06:11:03.593Z,0
2019-02-26T06:12:03.232Z,0
2019-02-26T06:13:10.557Z,0
2019-02-26T06:14:12.746Z,0
2019-02-26T06:15:08.544Z,-0.1
2019-02-26T06:16:07.680Z,-0.1
2019-02-26T06:17:03.696Z,0
2019-02-26T06:18:03.145Z,0
2019-02-26T06:19:03.461Z,0
2019-02-26T06:20:10.981Z,0
2019-02-26T06:21:02.998Z,0
2019-02-26T06:22:02.967Z,0
2019-02-26T06:23:02.748Z,0
2019-02-26T06:24:03.844Z,0.1
2019-02-26T06:25:20.052Z,0.1
2019-02-26T06:26:14.940Z,0.1
2019-02-26T06:27:03.244Z,0.1
2019-02-26T06:28:12.668Z,0.2
2019-02-26T06:29:03.345Z,0.2
2019-02-26T06:30:11.578Z,0.3
2019-02-26T06:31:03.718Z,0.3
2019-02-26T06:32:09.145Z,0.3
2019-02-26T06:33:09.626Z,0.4
2019-02-26T06:34:11.033Z,0.3
2019-02-26T06:35:10.506Z,0.4
2019-02-26T06:36:06.537Z,0.4
2019-02-26T06:37:09.069Z,0.4
2019-02-26T06:38:09.626Z,0.4
2019-02-26T06:39:06.142Z,0.4
2019-02-26T06:40:07.597Z,0.4
2019-02-26T06:41:03.320Z,0.4
2019-02-26T06:42:09.841Z,0.5
2019-02-26T06:43:03.197Z,0.5
2019-02-26T06:44:03.413Z,0.6
2019-02-26T06:45:08.431Z,0.6
2019-02-26T06:46:09.673Z,0.6
2019-02-26T06:47:09.104Z,0.6
2019-02-26T06:48:02.857Z,0.7
2019-02-26T06:49:03.637Z,0.7
2019-02-26T06:50:08.646Z,0.7
2019-02-26T06:51:07.258Z,0.7
2019-02-26T06:52:02.867Z,0.7
2019-02-26T06:53:10.640Z,0.8
2019-02-26T06:54:03.358Z,0.8
2019-02-26T06:55:07.870Z,0.8
2019-02-26T06:56:03.068Z,0.9
2019-02-26T06:57:03.388Z,0.9
2019-02-26T06:58:02.974Z,1
2019-02-26T06:59:09.326Z,0.9
2019-02-26T07:00:04.417Z,1
2019-02-26T07:01:03.018Z,1
2019-02-26T07:02:03.506Z,1
2019-02-26T07:03:02.907Z,1.1
2019-02-26T07:04:03.691Z,1.2
2019-02-26T07:05:03.044Z,1.3
2019-02-26T07:06:05.093Z,1.3
2019-02-26T07:07:12.023Z,1.3
2019-02-26T07:08:06.710Z,1.4
2019-02-26T07:09:03.622Z,1.4
2019-02-26T07:10:02.986Z,1.4
2019-02-26T07:11:04.107Z,1.4
2019-02-26T07:12:03.053Z,1.5
2019-02-26T07:13:09.929Z,1.6
2019-02-26T07:14:09.889Z,1.6
2019-02-26T07:15:03.089Z,1.6
2019-02-26T07:16:05.422Z,1.6
2019-02-26T07:17:03.035Z,1.6
2019-02-26T07:18:12.808Z,1.6
2019-02-26T07:19:09.009Z,1.6
2019-02-26T07:20:03.433Z,1.6
2019-02-26T07:21:02.900Z,1.6
2019-02-26T07:22:07.720Z,1.6
2019-02-26T07:23:08.626Z,1.7
2019-02-26T07:24:03.638Z,1.7
2019-02-26T07:25:02.997Z,1.7
2019-02-26T07:26:03.015Z,1.8
2019-02-26T07:27:08.980Z,1.8
2019-02-26T07:28:03.126Z,1.8
2019-02-26T07:29:09.971Z,1.8
2019-02-26T07:30:02.522Z,1.9
2019-02-26T07:31:09.832Z,1.9
2019-02-26T07:32:03.756Z,1.9
2019-02-26T07:33:08.173Z,1.9
2019-02-26T07:34:03.823Z,1.9
2019-02-26T07:35:09.119Z,1.9
2019-02-26T07:36:04.347Z,2
2019-02-26T07:37:09.256Z,2
2019-02-26T07:38:03.745Z,2.1
2019-02-26T07:39:05.321Z,2.1
2019-02-26T07:40:11.011Z,2.1
2019-02-26T07:41:06.314Z,2.1
2019-02-26T07:42:03.722Z,2.2
2019-02-26T07:43:12.143Z,2.2
2019-02-26T07:44:02.889Z,2.3
2019-02-26T07:45:02.943Z,2.3
2019-02-26T07:46:02.595Z,2.4
2019-02-26T07:47:09.332Z,2.4
2019-02-26T07:48:02.839Z,2.4
2019-02-26T07:49:07.523Z,2.5
2019-02-26T07:50:09.641Z,2.5
2019-02-26T07:51:03.443Z,2.6
2019-02-26T07:52:08.856Z,2.6
2019-02-26T07:53:03.471Z,2.7
2019-02-26T07:54:03.717Z,2.8
2019-02-26T07:55:08.963Z,2.8
2019-02-26T07:56:08.701Z,2.8
2019-02-26T07:57:04.055Z,2.8
2019-02-26T07:58:03.581Z,2.9
2019-02-26T07:59:09.939Z,2.9
2019-02-26T08:00:02.919Z,3
2019-02-26T08:01:02.839Z,3.1
2019-02-26T08:02:08.627Z,3.1
2019-02-26T08:03:04.827Z,3.2
2019-02-26T08:04:03.211Z,3.2
2019-02-26T08:05:03.549Z,3.4
2019-02-26T08:06:09.946Z,3.4
2019-02-26T08:07:03.917Z,3.4
2019-02-26T08:08:03.144Z,3.4
2019-02-26T08:09:12.139Z,3.5
2019-02-26T08:10:08.248Z,3.5
2019-02-26T08:11:03.094Z,3.6
2019-02-26T08:12:09.318Z,3.6
2019-02-26T08:13:08.098Z,3.8
2019-02-26T08:14:02.735Z,3.8
2019-02-26T08:15:10.427Z,3.8
2019-02-26T08:16:05.334Z,3.8
2019-02-26T08:17:06.402Z,3.9
2019-02-26T08:18:05.482Z,3.9
2019-02-26T08:19:02.453Z,4
2019-02-26T08:20:11.919Z,4.1
2019-02-26T08:21:05.302Z,4.1
2019-02-26T08:22:03.762Z,4.2
2019-02-26T08:23:03.019Z,4.3
2019-02-26T08:24:03.829Z,4.3
2019-02-26T08:25:03.074Z,4.4
2019-02-26T08:26:03.481Z,4.6
2019-02-26T08:27:08.437Z,4.6
2019-02-26T08:28:03.736Z,4.7
2019-02-26T08:29:09.407Z,4.7
2019-02-26T08:30:03.568Z,4.7
2019-02-26T08:31:05.548Z,4.7
2019-02-26T08:32:03.507Z,4.8
2019-02-26T08:33:07.571Z,4.9
2019-02-26T08:34:03.544Z,5
2019-02-26T08:35:02.967Z,5.1
2019-02-26T08:36:03.406Z,5.1
2019-02-26T08:37:03.577Z,5.3
2019-02-26T08:38:06.451Z,5.3
2019-02-26T08:39:02.993Z,5.4
2019-02-26T08:40:03.152Z,5.4
2019-02-26T08:41:03.283Z,5.5
2019-02-26T08:42:03.701Z,5.7
2019-02-26T08:43:03.003Z,5.8
2019-02-26T08:44:02.650Z,5.8
2019-02-26T08:45:03.688Z,5.8
2019-02-26T08:46:03.731Z,5.9
2019-02-26T08:47:11.851Z,6
2019-02-26T08:48:03.087Z,6.3
2019-02-26T08:49:12.942Z,6.4
2019-02-26T08:50:10.601Z,6.5
2019-02-26T08:51:12.937Z,6.5
2019-02-26T08:52:02.786Z,6.5
2019-02-26T08:53:03.084Z,6.7
2019-02-26T08:54:02.773Z,6.8
2019-02-26T08:55:02.958Z,6.8
2019-02-26T08:56:04.311Z,6.8
2019-02-26T08:57:02.994Z,7
2019-02-26T08:58:03.481Z,7.1
2019-02-26T08:59:03.782Z,7.1
2019-02-26T09:00:03.366Z,7.3
2019-02-26T09:01:03.296Z,7.4
2019-02-26T09:02:03.106Z,7.4
2019-02-26T09:03:03.534Z,7.8
2019-02-26T09:04:03.418Z,7.8
2019-02-26T09:05:11.383Z,7.9
2019-02-26T09:06:15.565Z,8.1
2019-02-26T09:07:02.937Z,8.1
2019-02-26T09:08:03.140Z,8.1
2019-02-26T09:09:06.941Z,8.4
2019-02-26T09:10:03.129Z,8.4
2019-02-26T09:11:11.348Z,8.6
2019-02-26T09:12:03.932Z,8.6
2019-02-26T09:13:03.404Z,8.8
2019-02-26T09:14:11.181Z,8.8
2019-02-26T09:15:03.375Z,8.9
2019-02-26T09:16:08.010Z,9
2019-02-26T09:17:04.835Z,9.1
2019-02-26T09:18:03.259Z,9.3
2019-02-26T09:19:02.598Z,9.4
2019-02-26T09:20:14.201Z,9.3
2019-02-26T09:21:02.754Z,9.4
2019-02-26T09:22:02.886Z,9.4
2019-02-26T09:23:03.445Z,9.5
2019-02-26T09:24:07.886Z,9.4
2019-02-26T09:25:03.075Z,9.4
2019-02-26T09:26:07.174Z,9.7
2019-02-26T09:27:05.224Z,9.8
2019-02-26T09:28:03.415Z,9.9
2019-02-26T09:29:02.937Z,10.1
2019-02-26T09:30:08.942Z,10.2
2019-02-26T09:31:11.134Z,10.3
2019-02-26T09:32:11.173Z,10.5
2019-02-26T09:33:09.196Z,10.4
2019-02-26T09:34:03.234Z,10.5
2019-02-26T09:35:05.047Z,10.7
2019-02-26T09:36:03.343Z,10.6
2019-02-26T09:37:08.133Z,10.8
2019-02-26T09:38:02.802Z,10.8
2019-02-26T09:39:08.772Z,10.9
2019-02-26T09:40:05.011Z,10.9
2019-02-26T09:41:03.007Z,10.9
2019-02-26T09:42:09.002Z,11.1
2019-02-26T09:43:03.402Z,11.1
2019-02-26T09:44:11.078Z,11.3
2019-02-26T09:45:03.258Z,11.4
2019-02-26T09:46:09.092Z,11.3
2019-02-26T09:47:07.794Z,11.5
2019-02-26T09:48:02.805Z,11.6
2019-02-26T09:49:12.382Z,11.7
2019-02-26T09:50:02.876Z,11.7
2019-02-26T09:51:08.926Z,11.7
2019-02-26T09:52:06.716Z,11.9
2019-02-26T09:53:03.431Z,12
2019-02-26T09:54:03.600Z,11.8
2019-02-26T09:55:03.401Z,11.8
2019-02-26T09:56:03.696Z,12.1
2019-02-26T09:57:03.081Z,12.2
2019-02-26T09:58:03.196Z,12.2
2019-02-26T09:59:09.226Z,12.2
2019-02-26T10:00:03.600Z,12.3
2019-02-26T10:01:03.238Z,12.4
2019-02-26T10:02:06.325Z,12.3
2019-02-26T10:03:09.872Z,12.4
2019-02-26T10:04:05.551Z,12.6
2019-02-26T10:05:03.847Z,12.6
2019-02-26T10:06:03.262Z,12.4
2019-02-26T10:07:09.776Z,12.5
2019-02-26T10:08:05.519Z,12.8
2019-02-26T10:09:03.468Z,12.6
2019-02-26T10:10:09.116Z,12.6
2019-02-26T10:11:05.147Z,12.9
2019-02-26T10:12:09.840Z,12.9
2019-02-26T10:13:04.963Z,12.9
2019-02-26T10:14:09.768Z,12.6
2019-02-26T10:15:05.459Z,13.1
2019-02-26T10:16:08.891Z,13.2
2019-02-26T10:17:03.267Z,13.2
2019-02-26T10:18:09.414Z,13.4
2019-02-26T10:19:03.050Z,13.4
2019-02-26T10:20:09.403Z,13
2019-02-26T10:21:03.327Z,13.1
2019-02-26T10:22:13.688Z,13.4
2019-02-26T10:23:06.536Z,13.4
2019-02-26T10:24:04.756Z,13.4
2019-02-26T10:25:03.038Z,13.8
2019-02-26T10:26:10.421Z,13.6
2019-02-26T10:27:10.938Z,13.8
2019-02-26T10:28:14.056Z,14.1
2019-02-26T10:29:07.713Z,14.1
2019-02-26T10:30:11.142Z,13.9
2019-02-26T10:31:09.678Z,13.9
2019-02-26T10:32:03.543Z,13.9
2019-02-26T10:33:03.173Z,13.9
2019-02-26T10:34:13.188Z,14.2
2019-02-26T10:35:08.483Z,14.3
2019-02-26T10:36:08.476Z,14.7
2019-02-26T10:37:03.729Z,14.6
2019-02-26T10:38:11.386Z,14.8
2019-02-26T10:39:03.738Z,14.8
2019-02-26T10:40:03.105Z,14
2019-02-26T10:41:05.263Z,14.1
2019-02-26T10:42:03.001Z,13.5
2019-02-26T10:43:03.291Z,13.3
2019-02-26T10:44:03.003Z,13.6
2019-02-26T10:45:03.650Z,13.9
2019-02-26T10:46:03.821Z,13.6
2019-02-26T10:47:10.210Z,13.8
2019-02-26T10:48:03.398Z,14.2
2019-02-26T10:49:03.681Z,14.4
2019-02-26T10:50:03.962Z,13.9
2019-02-26T10:51:07.352Z,13.4
2019-02-26T10:52:03.046Z,13.4
2019-02-26T10:53:13.680Z,13.6
2019-02-26T10:54:11.774Z,13.9
2019-02-26T10:55:03.284Z,13.6
2019-02-26T10:56:03.680Z,13.7
2019-02-26T10:57:11.823Z,13.8
2019-02-26T10:58:13.094Z,14.1
2019-02-26T10:59:12.134Z,14.1
2019-02-26T11:00:10.962Z,14.3
2019-02-26T11:01:05.617Z,14.4
2019-02-26T11:02:03.591Z,14.1
2019-02-26T11:03:03.182Z,14.4
2019-02-26T11:04:04.845Z,14.3
2019-02-26T11:05:03.736Z,14.6
2019-02-26T11:06:09.534Z,14.4
2019-02-26T11:07:11.458Z,14.3
2019-02-26T11:08:09.737Z,14.1
2019-02-26T11:09:03.099Z,14.6
2019-02-26T11:10:03.001Z,14.9
2019-02-26T11:11:09.944Z,14.3
2019-02-26T11:12:08.760Z,14
2019-02-26T11:13:03.014Z,14.5
2019-02-26T11:14:11.227Z,14.8
2019-02-26T11:15:09.231Z,14.3
2019-02-26T11:16:03.295Z,14
2019-02-26T11:17:03.819Z,14.5
2019-02-26T11:18:02.876Z,14.9
2019-02-26T11:19:09.325Z,14.6
2019-02-26T11:20:07.883Z,14.8
2019-02-26T11:21:03.215Z,14.9
2019-02-26T11:22:04.484Z,14.5
2019-02-26T11:23:10.757Z,14.3
2019-02-26T11:24:08.572Z,14
2019-02-26T11:25:03.485Z,14.4
2019-02-26T11:26:09.618Z,14.4
2019-02-26T11:27:03.519Z,14.6
2019-02-26T11:28:09.443Z,14.6
2019-02-26T11:29:03.611Z,14.6
2019-02-26T11:30:05.242Z,14.6
2019-02-26T11:31:03.538Z,14.4
2019-02-26T11:32:10.239Z,14.4
2019-02-26T11:33:10.565Z,14.5
2019-02-26T11:34:13.178Z,14.6
2019-02-26T11:35:03.300Z,14.3
2019-02-26T11:36:10.216Z,14.5
2019-02-26T11:37:09.144Z,14.2
2019-02-26T11:38:03.221Z,14.5
2019-02-26T11:39:09.182Z,14.5
2019-02-26T11:40:05.700Z,14.3
2019-02-26T11:41:03.167Z,14.6
2019-02-26T11:42:03.223Z,14.3
2019-02-26T11:43:16.505Z,14.4
2019-02-26T11:44:14.757Z,14.3
2019-02-26T11:45:11.405Z,14.2
2019-02-26T11:46:08.773Z,14.4
2019-02-26T11:47:03.690Z,14.3
2019-02-26T11:48:08.709Z,14.2
2019-02-26T11:49:03.704Z,14.6
2019-02-26T11:50:09.851Z,14.3
2019-02-26T11:51:03.812Z,14.3
2019-02-26T11:52:04.771Z,14.4
2019-02-26T11:53:03.712Z,14.6
2019-02-26T11:54:09.721Z,14.4
2019-02-26T11:55:11.248Z,14.3
2019-02-26T11:56:03.370Z,14.5
2019-02-26T11:57:10.943Z,14.4
2019-02-26T11:58:12.639Z,14.3
2019-02-26T11:59:11.716Z,14.1
2019-02-26T12:00:09.165Z,14.4
2019-02-26T12:01:03.029Z,14.3
2019-02-26T12:02:06.561Z,14.4
2019-02-26T12:03:03.514Z,14.5
2019-02-26T12:04:08.416Z,14.6
2019-02-26T12:05:10.615Z,14.4
2019-02-26T12:06:03.243Z,14.4
2019-02-26T12:07:09.744Z,14.6
2019-02-26T12:08:02.768Z,14.6
2019-02-26T12:09:11.478Z,14.5
2019-02-26T12:10:14.560Z,14.5
2019-02-26T12:12:08.652Z,14.7
2019-02-26T12:13:03.549Z,14.7
2019-02-26T12:13:03.867Z,14.8
2019-02-26T12:14:03.430Z,14.4
2019-02-26T12:15:09.495Z,14.4
2019-02-26T12:16:03.581Z,14.5
2019-02-26T12:17:02.959Z,15.1
2019-02-26T12:18:03.571Z,15.4
2019-02-26T12:19:10.541Z,15.2
2019-02-26T12:20:03.796Z,15
2019-02-26T12:21:10.415Z,14.9
2019-02-26T12:22:06.170Z,14.9
2019-02-26T12:23:02.941Z,14.9
2019-02-26T12:24:11.992Z,15.3
2019-02-26T12:25:11.181Z,15.4
2019-02-26T12:26:04.123Z,15.3
2019-02-26T12:27:03.317Z,15.3
2019-02-26T12:28:10.763Z,15.2
2019-02-26T12:29:04.632Z,15.2
2019-02-26T12:30:03.693Z,15.4
2019-02-26T12:31:12.275Z,15.4
2019-02-26T12:32:04.980Z,15.3
2019-02-26T12:33:03.497Z,15.6
2019-02-26T12:34:03.287Z,15.6
2019-02-26T12:35:11.597Z,15.4
2019-02-26T12:36:09.403Z,15.3
2019-02-26T12:37:11.717Z,15.8
2019-02-26T12:38:21.516Z,15.7
2019-02-26T12:39:03.196Z,15.6
2019-02-26T12:40:03.056Z,16
2019-02-26T12:41:12.807Z,16
2019-02-26T12:42:02.986Z,15.8
2019-02-26T12:43:12.432Z,15.9
2019-02-26T12:44:13.411Z,15.8
2019-02-26T12:45:10.628Z,15.3
2019-02-26T12:46:09.048Z,15.3
2019-02-26T12:47:02.998Z,15.3
2019-02-26T12:48:03.321Z,15.8
2019-02-26T12:49:09.456Z,15.6
2019-02-26T12:50:11.693Z,15.4
2019-02-26T12:51:07.879Z,15.4
2019-02-26T12:52:03.700Z,15.5
2019-02-26T12:53:03.370Z,15.9
2019-02-26T12:54:12.619Z,15.8
2019-02-26T12:55:10.396Z,15.6
2019-02-26T12:56:09.040Z,15.7
2019-02-26T12:57:04.501Z,15.4
2019-02-26T12:58:03.926Z,15.6
2019-02-26T12:59:03.354Z,15.8
2019-02-26T13:00:03.762Z,15.9
2019-02-26T13:01:02.714Z,15.6
2019-02-26T13:02:12.854Z,15.4
2019-02-26T13:03:12.515Z,15.5
2019-02-26T13:04:02.932Z,15.8
2019-02-26T13:05:03.222Z,15.7
2019-02-26T13:06:11.929Z,15.8
2019-02-26T13:08:03.439Z,15.9
2019-02-26T13:09:03.411Z,15.8
2019-02-26T13:09:08.522Z,15.9
2019-02-26T13:10:05.211Z,15.9
2019-02-26T13:11:03.066Z,15.4
2019-02-26T13:12:03.107Z,15.3
2019-02-26T13:13:08.202Z,15.5
2019-02-26T13:14:02.698Z,15.2
2019-02-26T13:15:10.083Z,15.2
2019-02-26T13:16:02.677Z,15.1
2019-02-26T13:17:02.818Z,15.1
2019-02-26T13:18:03.767Z,15.1
2019-02-26T13:19:04.960Z,15.1
2019-02-26T13:20:11.371Z,15.1
2019-02-26T13:21:16.409Z,14.9
2019-02-26T13:22:13.563Z,14.9
2019-02-26T13:23:21.665Z,14.9
2019-02-26T13:24:17.736Z,14.9
2019-02-26T13:25:14.913Z,14.8
2019-02-26T13:26:10.756Z,14.9
2019-02-26T13:27:03.842Z,14.9
2019-02-26T13:28:03.303Z,14.9
2019-02-26T13:29:03.146Z,15.1
2019-02-26T13:30:03.328Z,14.9
2019-02-26T13:31:13.243Z,14.9
2019-02-26T13:32:03.390Z,15.1
2019-02-26T13:34:03.603Z,14.9